Aviation Digital Data Service (ADDS)

Output produced by METARs form (2222 UTC 29 January 2015)
found at http://www.aviationweather.gov/adds/metars/
 
KTHV 292212Z AUTO 13004KT 1/4SM +SN FZFG VV007 M03/M04 A3005 RMK AO2 P0000 T10281039
KTHV 292200Z AUTO 15005KT 1/4SM +SN FZFG VV008 M03/M05 A3005 RMK AO2 P0000 T10281050
KTHV 292153Z AUTO 14005KT 1/4SM +SN FZFG VV010 M03/M05 A3006 RMK AO2 SNB21 SLP189 P0000 T10281050
KTHV 292149Z AUTO 00000KT 1/4SM +SN FZFG VV011 M03/M05 A3006 RMK AO2 SNB21 P0000
KTHV 292139Z AUTO 19005KT 1/4SM +SN VV016 M02/M06 A3006 RMK AO2 SNB21 P0000 T10221061
KTHV 292131Z AUTO 17005KT 1SM -SN OVC023 M01/M08 A3006 RMK AO2 VIS 1/4V5 SNB21 P0000 T10111083
KTHV 292129Z AUTO VRB06KT 2SM -SN OVC025 M01/M09 A3006 RMK AO2 VIS 3/4V5 SNB21 P0000 T10111089
KTHV 292127Z AUTO 19006KT 3SM -SN OVC025 M01/M09 A3006 RMK AO2 SNB21 P0000 T10111094
KTHV 292053Z AUTO 17005KT 10SM OVC060 M01/M11 A3007 RMK AO2 SLP194 T10061106 55028
KTHV 291953Z AUTO 16007KT 10SM BKN075 OVC090 M01/M12 A3007 RMK AO2 SLP192 T10061117
KTHV 291853Z AUTO 14007KT 10SM OVC095 M01/M12 A3012 RMK AO2 SLP209 T10061122
KTHV 291753Z AUTO 16007KT 10SM OVC095 M01/M13 A3016 RMK AO2 SLP222 T10061128 11006 21150 58036
KTHV 291653Z AUTO 15003KT 10SM BKN110 M02/M11 A3019 RMK AO2 SLP235 T10221111
KTHV 291553Z AUTO 00000KT 9SM OVC110 M04/M12 A3023 RMK AO2 SLP248 T10391117
KTHV 291453Z AUTO 00000KT 6SM HZ CLR M07/M11 A3026 RMK AO2 SLP259 T10671106 56013
KTHV 291353Z AUTO 00000KT 8SM CLR M09/M13 A3027 RMK AO2 SLP261 T10941128
KTHV 291253Z AUTO 00000KT 10SM CLR M12/M15 A3028 RMK AO2 SLP266 T11221150
KTHV 291153Z AUTO 00000KT 10SM CLR M15/M17 A3030 RMK AO2 SLP275 T11501172 11128 21167 55002
KTHV 291053Z AUTO 00000KT 10SM CLR M16/M17 A3030 RMK AO2 SLP273 T11561172
KTHV 290953Z AUTO 00000KT 10SM CLR M17/M18 A3031 RMK AO2 SLP274 T11671183
KTHV 290853Z AUTO 00000KT 10SM CLR M16/M18 A3031 RMK AO2 SLP275 T11561183 53001
KTHV 290753Z AUTO 00000KT 10SM CLR M15/M18 A3030 RMK AO2 SLP273 T11501183
KTHV 290653Z AUTO 28004KT 10SM CLR M15/M18 A3031 RMK AO2 SLP274 T11501178
KTHV 290553Z AUTO 00000KT 10SM CLR M14/M18 A3031 RMK AO2 SLP274 T11441178 11078 21156 50002
KTHV 290453Z AUTO 00000KT 10SM CLR M13/M17 A3031 RMK AO2 SLP276 T11331172 400001144
KTHV 290353Z AUTO 30005KT 10SM CLR M12/M17 A3030 RMK AO2 SLP271 T11171172
KTHV 290253Z AUTO 29005KT 10SM CLR M12/M17 A3030 RMK AO2 SLP272 T11171167 51012
KTHV 290153Z AUTO 00000KT 10SM CLR M10/M16 A3029 RMK AO2 SLP269 T11001161
KTHV 290053Z AUTO 29003KT 10SM CLR M09/M16 A3028 RMK AO2 SLP265 T10941161
KTHV 282353Z AUTO 00000KT 10SM CLR M08/M16 A3026 RMK AO2 SLP259 T10831156 10000 21094 51020
KTHV 282253Z AUTO 31009KT 10SM CLR M04/M15 A3024 RMK AO2 SLP251 T10441150
KTHV 282153Z AUTO 32006KT 10SM CLR M02/M16 A3023 RMK AO2 SLP245 T10171156
KTHV 282053Z AUTO 33010KT 10SM CLR M01/M16 A3020 RMK AO2 SLP238 T10061156 53007
KTHV 281953Z AUTO 32011KT 10SM CLR 00/M16 A3019 RMK AO2 SLP233 T00001161
KTHV 281853Z AUTO 33009KT 10SM CLR M01/M16 A3018 RMK AO2 SLP228 T10061161
KTHV 281753Z AUTO 29012G21KT 10SM CLR M02/M17 A3018 RMK AO2 SLP229 T10171167 11017 21122 58004
KTHV 281653Z AUTO 30011KT 10SM CLR M02/M16 A3019 RMK AO2 SLP233 T10221161
KTHV 281453Z AUTO 33013KT 10SM CLR M05/M17 A3020 RMK AO2 SLP235 T10501167 51026
KTHV 281353Z AUTO 28007KT 10SM CLR M07/M17 A3018 RMK AO2 SLP230 T10721172
KTHV 281253Z AUTO 30005KT 10SM CLR M11/M17 A3015 RMK AO2 SLP222 T11111172
KTHV 281153Z AUTO 30008KT 10SM CLR M09/M17 A3012 RMK AO2 SLP209 T10941167 11067 21106 53025
KTHV 281053Z AUTO 30007KT 10SM CLR M09/M17 A3009 RMK AO2 SLP199 T10941167